Terminal Aerodrome Forecast
Issued by NWS

Home | Current Version | Previous Version | Text Only | Print | Product List | Glossary On
Versions: 1 2 3 4 5 6 7 8 9 10 11 12 13 14 15
000
FTUS42 KMHX 300553
TAFISO
TAF
KISO 300553Z 3006/3106 19005KT P6SM SKC
     FM301100 23012KT P6SM BKN100
     FM301700 24012G20KT 3SM SHRA BKN015 OVC030
     FM302000 26008KT P6SM VCSH SCT015 BKN030
     FM310000 28004KT P6SM SKC
      AMD LTD TO CLD VIS AND WIND=

USA.gov is the U.S. government's official web portal to all federal, state and local government web resources and services.